Time;durP1;ratioP1;P1;durP2;ratioP2;P2;SDS_P1;SDS_P2;PMS_P1;PMS_P2;Temp;Humidity;BMP_temperature;BMP_pressure;BME280_temperature;BME280_humidity;BME280_pressure;Samples;Min_cycle;Max_cycle;Signal;HPM_P1;HPM_P2
2021/08/16 00:01:44;;;;;;;4.20;3.80;;;;;;;;;;5074136;28;20027;-59
2021/08/16 00:04:10;;;;;;;4.07;3.78;;;;;;;;;;5074223;28;20020;-59
2021/08/16 00:06:35;;;;;;;4.30;3.90;;;;;;;;;;5068895;28;20025;-59
2021/08/16 00:09:00;;;;;;;4.63;3.80;;;;;;;;;;5053403;28;20055;-59
2021/08/16 00:11:25;;;;;;;5.32;4.07;;;;;;;;;;5055606;28;20024;-59
2021/08/16 00:13:51;;;;;;;4.50;4.10;;;;;;;;;;5078904;28;20493;-59
2021/08/16 00:16:16;;;;;;;5.47;3.92;;;;;;;;;;5073666;28;20012;-59
2021/08/16 00:18:41;;;;;;;5.32;4.13;;;;;;;;;;5094237;28;20032;-59
2021/08/16 00:21:06;;;;;;;4.47;3.90;;;;;;;;;;5083305;28;20494;-59
2021/08/16 00:23:31;;;;;;;5.85;4.07;;;;;;;;;;5072647;28;20024;-59
2021/08/16 00:25:57;;;;;;;4.13;3.83;;;;;;;;;;5073918;28;20024;-59
2021/08/16 00:28:22;;;;;;;4.60;3.78;;;;;;;;;;5073243;28;20063;-59
2021/08/16 00:30:47;;;;;;;5.82;4.28;;;;;;;;;;5073389;28;20024;-59
2021/08/16 00:33:12;;;;;;;5.45;4.28;;;;;;;;;;5073707;28;20048;-59
2021/08/16 00:35:38;;;;;;;5.60;3.70;;;;;;;;;;5073618;28;20028;-59
2021/08/16 00:38:04;;;;;;;4.70;4.13;;;;;;;;;;5073281;28;20013;-60
2021/08/16 00:40:29;;;;;;;4.47;4.07;;;;;;;;;;5073231;28;20016;-59
2021/08/16 00:42:54;;;;;;;6.03;4.38;;;;;;;;;;5072910;28;20538;-60
2021/08/16 00:45:19;;;;;;;4.90;4.28;;;;;;;;;;5073393;28;20028;-57
2021/08/16 00:47:44;;;;;;;5.82;4.07;;;;;;;;;;5073407;28;20024;-58
2021/08/16 00:50:11;;;;;;;7.28;4.97;;;;;;;;;;5073296;28;20029;-58
2021/08/16 00:52:37;;;;;;;6.82;4.07;;;;;;;;;;5072974;28;20021;-58
2021/08/16 00:55:04;;;;;;;6.40;4.97;;;;;;;;;;5072720;28;20028;-59
2021/08/16 00:57:29;;;;;;;4.90;4.40;;;;;;;;;;5073142;28;20029;-59
2021/08/16 00:59:55;;;;;;;4.90;4.22;;;;;;;;;;5073168;28;20023;-58
2021/08/16 01:02:21;;;;;;;8.00;4.32;;;;;;;;;;5072820;28;20021;-58
2021/08/16 01:04:46;;;;;;;5.20;4.27;;;;;;;;;;5072972;28;20478;-58
2021/08/16 01:07:11;;;;;;;5.63;4.43;;;;;;;;;;5073007;28;20262;-58
2021/08/16 01:09:37;;;;;;;5.30;4.03;;;;;;;;;;5072724;28;20027;-57
2021/08/16 01:12:02;;;;;;;6.45;4.30;;;;;;;;;;5072726;28;20364;-59
2021/08/16 01:14:27;;;;;;;4.53;4.13;;;;;;;;;;5072705;28;20052;-59
2021/08/16 01:16:52;;;;;;;4.72;4.30;;;;;;;;;;5072824;28;20467;-59
2021/08/16 01:19:21;;;;;;;4.80;4.40;;;;;;;;;;5072666;28;20035;-58
2021/08/16 01:21:46;;;;;;;5.47;4.63;;;;;;;;;;5072459;28;20056;-59
2021/08/16 01:24:12;;;;;;;5.13;4.30;;;;;;;;;;5072452;28;20029;-59
2021/08/16 01:26:38;;;;;;;4.05;3.60;;;;;;;;;;5072705;28;20066;-59
2021/08/16 01:29:04;;;;;;;4.45;4.05;;;;;;;;;;5067524;28;20404;-59
2021/08/16 01:31:29;;;;;;;3.70;3.40;;;;;;;;;;5071936;28;20028;-59
2021/08/16 01:33:54;;;;;;;4.72;3.97;;;;;;;;;;5070841;28;20025;-59
2021/08/16 01:36:19;;;;;;;4.15;3.75;;;;;;;;;;5071285;28;20024;-58
2021/08/16 01:38:45;;;;;;;4.55;3.90;;;;;;;;;;5072850;28;20017;-59
2021/08/16 01:41:10;;;;;;;5.85;4.40;;;;;;;;;;5071938;28;20475;-59
2021/08/16 01:43:35;;;;;;;5.15;4.25;;;;;;;;;;5071998;28;20111;-59
2021/08/16 01:46:00;;;;;;;5.75;4.65;;;;;;;;;;5072414;28;20016;-59
2021/08/16 01:48:27;;;;;;;8.57;5.88;;;;;;;;;;5072443;28;20100;-59
2021/08/16 01:50:52;;;;;;;5.35;4.85;;;;;;;;;;5072815;28;20060;-59
2021/08/16 01:53:17;;;;;;;4.97;4.50;;;;;;;;;;5071939;28;20453;-59
2021/08/16 01:55:42;;;;;;;9.27;5.65;;;;;;;;;;5072612;28;20352;-59
2021/08/16 01:58:09;;;;;;;7.10;4.82;;;;;;;;;;5071350;28;20024;-59
2021/08/16 02:00:34;;;;;;;6.65;4.55;;;;;;;;;;5072123;28;20021;-59
2021/08/16 02:03:00;;;;;;;5.32;3.90;;;;;;;;;;5071634;28;20419;-59
2021/08/16 02:05:25;;;;;;;5.88;4.28;;;;;;;;;;5072086;28;20024;-59
2021/08/16 02:07:50;;;;;;;5.78;3.75;;;;;;;;;;5070891;28;20027;-59
2021/08/16 02:10:15;;;;;;;3.97;3.65;;;;;;;;;;5071905;28;20027;-59
2021/08/16 02:12:40;;;;;;;4.75;4.28;;;;;;;;;;5071646;28;20294;-59
2021/08/16 02:15:07;;;;;;;4.68;3.72;;;;;;;;;;5071851;28;20027;-59
2021/08/16 02:17:32;;;;;;;4.30;3.80;;;;;;;;;;5071891;28;20478;-58
2021/08/16 02:19:57;;;;;;;5.70;4.05;;;;;;;;;;5072013;28;20041;-58
2021/08/16 02:22:22;;;;;;;8.00;4.72;;;;;;;;;;5071960;28;20039;-58
2021/08/16 02:24:48;;;;;;;5.95;4.30;;;;;;;;;;5071813;28;20063;-58
2021/08/16 02:27:13;;;;;;;7.85;4.30;;;;;;;;;;5071949;28;20023;-59
2021/08/16 02:29:38;;;;;;;5.60;4.53;;;;;;;;;;5071780;28;20483;-58
2021/08/16 02:32:03;;;;;;;5.30;4.10;;;;;;;;;;5071988;28;20258;-58
2021/08/16 02:34:29;;;;;;;8.60;4.68;;;;;;;;;;5071493;28;20033;-59
2021/08/16 02:36:54;;;;;;;5.03;4.22;;;;;;;;;;5071851;28;20043;-58
2021/08/16 02:39:19;;;;;;;4.72;4.20;;;;;;;;;;5071825;28;20017;-59
2021/08/16 02:41:44;;;;;;;5.50;4.03;;;;;;;;;;5071310;28;20376;-59
2021/08/16 02:44:10;;;;;;;4.45;3.75;;;;;;;;;;5070869;28;20099;-59
2021/08/16 02:46:35;;;;;;;5.10;3.60;;;;;;;;;;5070121;28;20099;-59
2021/08/16 02:49:00;;;;;;;5.50;3.55;;;;;;;;;;5071716;28;20315;-59
2021/08/16 02:51:26;;;;;;;6.05;4.00;;;;;;;;;;5071392;28;20036;-59
2021/08/16 02:53:51;;;;;;;4.32;3.92;;;;;;;;;;5071936;28;20031;-59
2021/08/16 02:56:17;;;;;;;4.10;3.47;;;;;;;;;;5071540;28;20028;-58
2021/08/16 02:58:42;;;;;;;4.15;3.75;;;;;;;;;;5071362;28;20024;-59
2021/08/16 03:01:07;;;;;;;4.60;3.75;;;;;;;;;;5071702;28;20531;-59
2021/08/16 03:03:32;;;;;;;4.67;4.13;;;;;;;;;;5071575;28;20024;-59
2021/08/16 03:05:57;;;;;;;4.53;4.00;;;;;;;;;;5071357;28;20266;-59
2021/08/16 03:08:23;;;;;;;5.50;4.05;;;;;;;;;;5071385;28;20512;-59
2021/08/16 03:10:48;;;;;;;5.90;4.43;;;;;;;;;;5071077;28;20116;-58
2021/08/16 03:13:13;;;;;;;9.77;4.93;;;;;;;;;;5071396;28;20033;-59
2021/08/16 03:15:38;;;;;;;6.30;4.85;;;;;;;;;;5071307;28;20054;-56
2021/08/16 03:18:03;;;;;;;5.30;4.13;;;;;;;;;;5073004;28;20060;-58
2021/08/16 03:20:29;;;;;;;6.20;4.32;;;;;;;;;;5074569;28;20119;-57
2021/08/16 03:22:54;;;;;;;4.35;3.95;;;;;;;;;;5075145;28;20108;-57
2021/08/16 03:25:19;;;;;;;5.10;4.60;;;;;;;;;;5074966;28;20016;-59
2021/08/16 03:27:45;;;;;;;6.93;4.75;;;;;;;;;;5074493;28;20484;-58
2021/08/16 03:30:12;;;;;;;6.65;4.18;;;;;;;;;;5072981;28;20417;-58
2021/08/16 03:32:37;;;;;;;4.75;3.90;;;;;;;;;;5074806;28;20013;-59
2021/08/16 03:35:02;;;;;;;5.30;4.40;;;;;;;;;;5074809;28;20020;-59
2021/08/16 03:37:33;;;;;;;5.18;4.20;;;;;;;;;;5074421;28;20028;-58
2021/08/16 03:39:59;;;;;;;5.35;4.30;;;;;;;;;;5074783;28;20039;-58
2021/08/16 03:42:24;;;;;;;6.32;4.38;;;;;;;;;;5074679;28;20024;-59
2021/08/16 03:44:49;;;;;;;5.22;4.20;;;;;;;;;;5072877;28;20032;-59
2021/08/16 03:47:14;;;;;;;4.40;3.92;;;;;;;;;;5074363;28;20466;-59
2021/08/16 03:49:39;;;;;;;4.68;4.18;;;;;;;;;;5074394;28;20025;-59
2021/08/16 03:52:05;;;;;;;4.90;4.32;;;;;;;;;;5074437;28;20474;-59
2021/08/16 03:54:30;;;;;;;5.65;4.50;;;;;;;;;;5074376;28;20016;-58
2021/08/16 03:56:55;;;;;;;8.52;4.40;;;;;;;;;;5074564;28;20016;-59
2021/08/16 03:59:20;;;;;;;4.75;4.35;;;;;;;;;;5074004;28;20023;-58
2021/08/16 04:01:46;;;;;;;5.72;4.10;;;;;;;;;;5074364;28;20024;-59
2021/08/16 04:04:11;;;;;;;6.22;4.50;;;;;;;;;;5074544;28;20028;-58
2021/08/16 04:06:36;;;;;;;5.22;4.28;;;;;;;;;;5074399;28;20500;-58
2021/08/16 04:09:01;;;;;;;5.93;4.13;;;;;;;;;;5074211;28;20436;-58
2021/08/16 04:11:27;;;;;;;5.30;4.80;;;;;;;;;;5073744;28;20425;-58
2021/08/16 04:13:52;;;;;;;6.30;4.70;;;;;;;;;;5073916;28;20032;-58
2021/08/16 04:16:17;;;;;;;5.72;4.32;;;;;;;;;;5073879;28;20032;-58
2021/08/16 04:18:42;;;;;;;5.80;4.30;;;;;;;;;;5073831;28;20071;-58
2021/08/16 04:21:08;;;;;;;6.63;4.40;;;;;;;;;;5073699;28;20049;-58
2021/08/16 04:23:33;;;;;;;5.13;4.57;;;;;;;;;;5073867;28;20042;-58
2021/08/16 04:25:58;;;;;;;5.03;4.53;;;;;;;;;;5073741;28;20025;-58
2021/08/16 04:28:23;;;;;;;4.82;4.32;;;;;;;;;;5073365;28;20027;-58
2021/08/16 04:30:48;;;;;;;5.82;4.43;;;;;;;;;;5073523;28;20387;-58
2021/08/16 04:33:14;;;;;;;5.45;4.25;;;;;;;;;;5073397;28;20009;-59
2021/08/16 04:35:39;;;;;;;7.30;4.43;;;;;;;;;;5073491;28;20147;-59
2021/08/16 04:38:05;;;;;;;5.15;4.20;;;;;;;;;;5073191;28;20025;-59
2021/08/16 04:40:30;;;;;;;6.05;5.28;;;;;;;;;;5073312;28;20384;-59
2021/08/16 04:42:55;;;;;;;5.63;4.95;;;;;;;;;;5073022;28;20040;-59
2021/08/16 04:45:20;;;;;;;5.40;4.90;;;;;;;;;;5073030;28;20402;-58
2021/08/16 04:47:46;;;;;;;6.55;4.97;;;;;;;;;;5072971;28;20274;-59
2021/08/16 04:50:12;;;;;;;6.07;4.72;;;;;;;;;;5072964;28;20028;-59
2021/08/16 04:52:37;;;;;;;5.63;4.57;;;;;;;;;;5073387;28;20028;-59
2021/08/16 04:55:02;;;;;;;6.43;4.63;;;;;;;;;;5072912;28;20025;-59
2021/08/16 04:57:35;;;;;;;7.93;4.68;;;;;;;;;;5073051;28;20075;-57
2021/08/16 05:00:02;;;;;;;5.70;4.55;;;;;;;;;;5072878;28;20046;-59
2021/08/16 05:02:27;;;;;;;8.95;5.13;;;;;;;;;;5073216;28;20024;-59
2021/08/16 05:04:58;;;;;;;6.80;4.80;;;;;;;;;;5072867;28;20020;-59
2021/08/16 05:07:23;;;;;;;6.53;4.95;;;;;;;;;;5073341;28;20017;-58
2021/08/16 05:09:52;;;;;;;7.70;5.15;;;;;;;;;;5072179;28;20036;-58
2021/08/16 05:12:17;;;;;;;7.60;4.60;;;;;;;;;;5072796;28;20048;-58
2021/08/16 05:14:42;;;;;;;9.85;5.88;;;;;;;;;;5072622;28;20071;-58
2021/08/16 05:17:08;;;;;;;6.15;5.20;;;;;;;;;;5067115;28;20435;-58
2021/08/16 05:19:37;;;;;;;7.03;5.60;;;;;;;;;;5052747;28;20108;-58
2021/08/16 05:22:04;;;;;;;9.00;5.90;;;;;;;;;;5060734;28;20056;-59
2021/08/16 05:24:29;;;;;;;7.20;5.65;;;;;;;;;;5072384;28;20021;-59
2021/08/16 05:26:55;;;;;;;7.88;5.25;;;;;;;;;;5072423;28;20085;-59
2021/08/16 05:29:20;;;;;;;5.70;5.13;;;;;;;;;;5064450;28;20017;-59
2021/08/16 05:31:45;;;;;;;6.77;4.70;;;;;;;;;;5053717;28;20471;-59
2021/08/16 05:34:10;;;;;;;8.37;4.90;;;;;;;;;;5071780;28;20266;-59
2021/08/16 05:36:35;;;;;;;7.67;5.27;;;;;;;;;;5092657;28;20250;-58
2021/08/16 05:39:00;;;;;;;10.30;7.20;;;;;;;;;;5082759;28;20259;-59
2021/08/16 05:41:26;;;;;;;7.40;4.47;;;;;;;;;;5069787;28;20294;-59
2021/08/16 05:43:51;;;;;;;7.10;5.30;;;;;;;;;;5067857;28;20281;-59
2021/08/16 05:46:16;;;;;;;6.93;6.03;;;;;;;;;;5072165;28;20027;-59
2021/08/16 05:48:41;;;;;;;7.50;6.50;;;;;;;;;;5072282;28;20079;-59
2021/08/16 05:51:07;;;;;;;5.80;5.22;;;;;;;;;;5071594;28;20306;-59
2021/08/16 05:53:32;;;;;;;6.05;5.05;;;;;;;;;;5071045;28;20365;-60
2021/08/16 05:55:57;;;;;;;5.93;4.57;;;;;;;;;;5071303;28;20020;-59
2021/08/16 05:58:22;;;;;;;5.97;5.40;;;;;;;;;;5071990;28;20035;-59
2021/08/16 06:00:47;;;;;;;5.20;4.70;;;;;;;;;;5070806;28;20028;-59
2021/08/16 06:03:13;;;;;;;5.83;4.90;;;;;;;;;;5072654;28;20258;-59
2021/08/16 06:05:38;;;;;;;6.82;4.75;;;;;;;;;;5072087;28;20306;-57
2021/08/16 06:08:03;;;;;;;5.53;4.90;;;;;;;;;;5072058;28;20062;-59
2021/08/16 06:10:28;;;;;;;6.28;4.50;;;;;;;;;;5071704;28;20032;-59
2021/08/16 06:12:53;;;;;;;4.78;4.13;;;;;;;;;;5071799;28;20017;-59
2021/08/16 06:15:19;;;;;;;4.28;3.70;;;;;;;;;;5071821;28;20021;-58
2021/08/16 06:17:44;;;;;;;6.13;4.47;;;;;;;;;;5071889;28;20105;-59
2021/08/16 06:20:10;;;;;;;6.40;3.03;;;;;;;;;;5071826;28;20080;-59
2021/08/16 06:22:37;;;;;;;6.45;4.40;;;;;;;;;;5071907;28;20386;-59
2021/08/16 06:25:02;;;;;;;4.65;4.22;;;;;;;;;;5071762;28;20048;-58
2021/08/16 06:27:27;;;;;;;4.18;3.08;;;;;;;;;;5072175;28;20025;-59
2021/08/16 06:29:52;;;;;;;5.32;3.60;;;;;;;;;;5071601;28;20478;-59
2021/08/16 06:32:18;;;;;;;3.93;2.87;;;;;;;;;;5071715;28;20459;-59
2021/08/16 06:34:43;;;;;;;8.47;4.30;;;;;;;;;;5071716;28;20312;-59
2021/08/16 06:37:09;;;;;;;4.75;3.70;;;;;;;;;;5071522;28;20274;-59
2021/08/16 06:39:34;;;;;;;3.63;3.03;;;;;;;;;;5071785;28;20043;-59
2021/08/16 06:41:59;;;;;;;5.83;4.00;;;;;;;;;;5071433;28;20020;-60
2021/08/16 06:44:25;;;;;;;4.93;4.43;;;;;;;;;;5071546;28;20263;-59
2021/08/16 06:46:51;;;;;;;5.85;4.57;;;;;;;;;;5071551;28;20297;-59
2021/08/16 06:49:16;;;;;;;6.38;4.53;;;;;;;;;;5071525;28;20371;-59
2021/08/16 06:51:41;;;;;;;5.15;4.40;;;;;;;;;;5071335;28;20074;-60
2021/08/16 06:54:07;;;;;;;7.82;4.65;;;;;;;;;;5074873;28;20017;-60
2021/08/16 06:56:32;;;;;;;7.22;4.43;;;;;;;;;;5075345;28;20032;-60
2021/08/16 06:58:57;;;;;;;6.20;4.30;;;;;;;;;;5075128;28;20027;-60
2021/08/16 07:01:23;;;;;;;4.77;4.30;;;;;;;;;;5075384;28;20024;-60
2021/08/16 07:03:49;;;;;;;3.80;3.38;;;;;;;;;;5075337;28;20714;-60
2021/08/16 07:06:14;;;;;;;5.00;4.55;;;;;;;;;;5075554;28;20044;-58
2021/08/16 07:08:40;;;;;;;5.68;4.13;;;;;;;;;;5075233;28;20024;-59
2021/08/16 07:11:05;;;;;;;4.80;4.27;;;;;;;;;;5074920;28;20025;-58
2021/08/16 07:13:31;;;;;;;3.53;2.67;;;;;;;;;;5074942;28;20266;-58
2021/08/16 07:15:56;;;;;;;5.75;4.65;;;;;;;;;;5075212;28;20263;-59
2021/08/16 07:18:21;;;;;;;4.27;3.73;;;;;;;;;;5075071;28;20134;-59
2021/08/16 07:20:46;;;;;;;5.57;4.80;;;;;;;;;;5074991;28;20640;-58
2021/08/16 07:23:12;;;;;;;5.17;4.77;;;;;;;;;;5074847;28;20041;-59
2021/08/16 07:25:37;;;;;;;5.40;4.57;;;;;;;;;;5074950;28;20261;-60
2021/08/16 07:28:02;;;;;;;4.87;4.47;;;;;;;;;;5074464;28;20269;-59
2021/08/16 07:30:28;;;;;;;5.32;4.32;;;;;;;;;;5074771;28;20308;-60
2021/08/16 07:32:53;;;;;;;8.43;4.83;;;;;;;;;;5075230;28;20462;-59
2021/08/16 07:35:18;;;;;;;5.77;5.17;;;;;;;;;;5074764;28;20250;-57
2021/08/16 07:37:43;;;;;;;5.90;5.28;;;;;;;;;;5074693;28;20247;-59
2021/08/16 07:40:09;;;;;;;6.30;5.57;;;;;;;;;;5074441;28;20024;-59
2021/08/16 07:42:34;;;;;;;6.47;4.55;;;;;;;;;;5074283;28;20262;-59
2021/08/16 07:44:59;;;;;;;4.63;4.23;;;;;;;;;;5072392;28;20033;-59
2021/08/16 07:47:24;;;;;;;10.00;4.68;;;;;;;;;;5074474;28;20266;-58
2021/08/16 07:49:49;;;;;;;5.78;4.88;;;;;;;;;;5074240;28;20070;-59
2021/08/16 07:52:15;;;;;;;3.60;3.03;;;;;;;;;;5074324;28;20509;-60
2021/08/16 07:54:40;;;;;;;3.67;2.87;;;;;;;;;;5073969;28;20262;-60
2021/08/16 07:57:05;;;;;;;4.40;3.05;;;;;;;;;;5074218;28;20259;-59
2021/08/16 07:59:30;;;;;;;4.47;2.20;;;;;;;;;;5073901;28;20021;-59
2021/08/16 08:01:56;;;;;;;2.50;2.10;;;;;;;;;;5074242;28;20021;-59
2021/08/16 08:04:21;;;;;;;4.70;3.22;;;;;;;;;;5074135;28;20024;-58
2021/08/16 08:06:46;;;;;;;5.55;4.03;;;;;;;;;;5074280;28;20020;-59
2021/08/16 08:09:11;;;;;;;3.77;3.33;;;;;;;;;;5073449;28;20104;-59
2021/08/16 08:11:37;;;;;;;3.47;3.07;;;;;;;;;;5072074;28;20279;-59
2021/08/16 08:14:02;;;;;;;4.87;3.63;;;;;;;;;;5073730;28;20258;-60
2021/08/16 08:16:27;;;;;;;4.32;3.55;;;;;;;;;;5074032;28;20258;-60
2021/08/16 08:18:52;;;;;;;5.43;3.67;;;;;;;;;;5074235;28;20382;-60
2021/08/16 08:21:17;;;;;;;7.33;3.80;;;;;;;;;;5073564;28;20290;-60
2021/08/16 08:23:43;;;;;;;3.88;3.45;;;;;;;;;;5074254;28;20259;-60
2021/08/16 08:26:08;;;;;;;3.85;3.22;;;;;;;;;;5073701;28;20387;-59
2021/08/16 08:28:33;;;;;;;4.67;3.33;;;;;;;;;;5073509;28;20024;-59
2021/08/16 08:30:59;;;;;;;5.33;3.20;;;;;;;;;;5073622;28;20293;-59
2021/08/16 08:33:24;;;;;;;4.05;3.42;;;;;;;;;;5073856;28;20320;-59
2021/08/16 08:35:50;;;;;;;4.35;2.67;;;;;;;;;;5073536;28;20494;-59
2021/08/16 08:38:15;;;;;;;3.38;3.08;;;;;;;;;;5073434;28;20059;-59
2021/08/16 08:40:41;;;;;;;4.45;3.28;;;;;;;;;;5073244;28;20047;-59
2021/08/16 08:43:11;;;;;;;4.75;3.65;;;;;;;;;;5073041;28;20052;-59
2021/08/16 08:45:37;;;;;;;4.28;3.30;;;;;;;;;;5073665;28;20028;-59
2021/08/16 08:48:03;;;;;;;5.60;3.10;;;;;;;;;;5073221;28;20090;-59
2021/08/16 08:50:28;;;;;;;4.60;3.08;;;;;;;;;;5071752;28;20386;-60
2021/08/16 08:52:54;;;;;;;4.93;3.07;;;;;;;;;;5073221;28;20017;-59
2021/08/16 08:55:19;;;;;;;4.97;3.50;;;;;;;;;;5072814;28;20254;-60
2021/08/16 08:57:44;;;;;;;6.03;3.35;;;;;;;;;;5072901;28;20467;-60
2021/08/16 09:00:15;;;;;;;6.47;3.83;;;;;;;;;;5072903;28;20019;-60
2021/08/16 09:02:41;;;;;;;5.65;4.13;;;;;;;;;;5073190;28;20028;-60
2021/08/16 09:05:06;;;;;;;5.05;4.00;;;;;;;;;;5072915;28;20016;-60
2021/08/16 09:07:36;;;;;;;5.72;4.10;;;;;;;;;;5072825;28;20016;-60
2021/08/16 09:10:03;;;;;;;7.22;4.70;;;;;;;;;;5072392;28;20025;-60
2021/08/16 09:12:33;;;;;;;5.43;4.32;;;;;;;;;;5072890;28;20021;-60
2021/08/16 09:14:58;;;;;;;7.40;5.07;;;;;;;;;;5071996;28;20021;-57
2021/08/16 09:17:31;;;;;;;6.32;4.20;;;;;;;;;;5072835;28;20024;-59
2021/08/16 09:19:56;;;;;;;7.60;4.38;;;;;;;;;;5072760;28;20027;-59
2021/08/16 09:22:27;;;;;;;6.60;3.92;;;;;;;;;;5072456;28;20021;-58
2021/08/16 09:24:59;;;;;;;4.15;3.40;;;;;;;;;;5072817;28;20025;-59
2021/08/16 09:27:24;;;;;;;5.20;4.45;;;;;;;;;;5072555;28;20027;-59
2021/08/16 09:29:50;;;;;;;6.35;4.03;;;;;;;;;;5072285;28;20020;-59
2021/08/16 09:32:17;;;;;;;6.40;4.38;;;;;;;;;;5072417;28;20066;-59
2021/08/16 09:34:47;;;;;;;4.65;4.13;;;;;;;;;;5072384;28;20016;-59
2021/08/16 09:37:30;;;;;;;5.05;3.80;;;;;;;;;;5072381;28;20039;-58
2021/08/16 09:39:59;;;;;;;4.63;4.05;;;;;;;;;;5070778;28;20017;-59
2021/08/16 09:42:24;;;;;;;7.75;4.35;;;;;;;;;;5072406;28;20092;-59
2021/08/16 09:44:50;;;;;;;7.25;4.45;;;;;;;;;;5071100;28;20116;-59
2021/08/16 09:47:15;;;;;;;4.80;3.75;;;;;;;;;;5072143;28;20058;-61
2021/08/16 09:49:41;;;;;;;4.43;4.03;;;;;;;;;;5072112;28;20351;-60
2021/08/16 09:52:07;;;;;;;6.47;4.53;;;;;;;;;;5072234;28;20074;-60
2021/08/16 09:54:35;;;;;;;4.57;4.05;;;;;;;;;;5072125;28;20247;-59
2021/08/16 09:57:01;;;;;;;3.90;2.72;;;;;;;;;;5072011;28;20463;-59
2021/08/16 09:59:27;;;;;;;9.10;3.75;;;;;;;;;;5071660;28;20153;-59
2021/08/16 10:01:52;;;;;;;4.00;3.08;;;;;;;;;;5072113;28;20024;-59
2021/08/16 10:04:17;;;;;;;5.55;3.22;;;;;;;;;;5072242;28;20032;-59
2021/08/16 10:06:43;;;;;;;5.93;3.50;;;;;;;;;;5071994;28;20024;-59
2021/08/16 10:09:09;;;;;;;5.90;3.97;;;;;;;;;;5071861;28;20282;-58
2021/08/16 10:11:36;;;;;;;6.50;2.50;;;;;;;;;;5072089;28;20028;-61
2021/08/16 10:14:01;;;;;;;7.05;3.50;;;;;;;;;;5071684;28;20013;-59
2021/08/16 10:16:29;;;;;;;6.22;3.45;;;;;;;;;;5072004;28;20486;-59
2021/08/16 10:19:02;;;;;;;6.03;3.00;;;;;;;;;;5072184;28;20502;-59
2021/08/16 10:21:29;;;;;;;5.38;2.35;;;;;;;;;;5071706;28;20075;-59
2021/08/16 10:23:55;;;;;;;4.05;2.58;;;;;;;;;;5071844;28;20066;-58
2021/08/16 10:26:27;;;;;;;3.58;2.65;;;;;;;;;;5072140;28;20021;-59
2021/08/16 10:28:54;;;;;;;3.65;2.03;;;;;;;;;;5075626;28;20020;-59
2021/08/16 10:31:26;;;;;;;3.00;2.30;;;;;;;;;;5075818;28;20481;-59
2021/08/16 10:33:52;;;;;;;7.40;2.63;;;;;;;;;;5075689;28;20036;-60
2021/08/16 10:36:21;;;;;;;7.57;3.25;;;;;;;;;;5075879;28;20012;-59
2021/08/16 10:38:47;;;;;;;4.93;2.38;;;;;;;;;;5075105;28;20136;-59
2021/08/16 10:41:22;;;;;;;5.10;2.05;;;;;;;;;;5073214;28;20431;-59
2021/08/16 10:43:47;;;;;;;5.47;2.55;;;;;;;;;;5074111;28;20021;-58
2021/08/16 10:46:18;;;;;;;4.10;3.33;;;;;;;;;;5074933;28;20099;-59
2021/08/16 10:48:43;;;;;;;5.30;2.88;;;;;;;;;;5075785;28;20021;-59
2021/08/16 10:51:09;;;;;;;4.40;2.90;;;;;;;;;;5075000;28;20023;-59
2021/08/16 10:53:51;;;;;;;3.67;2.65;;;;;;;;;;5074263;28;20337;-58
2021/08/16 10:56:17;;;;;;;5.13;2.88;;;;;;;;;;5068112;28;20075;-58
2021/08/16 10:58:43;;;;;;;4.05;2.85;;;;;;;;;;5057166;28;20463;-59
2021/08/16 11:01:08;;;;;;;7.07;2.30;;;;;;;;;;5074453;28;20033;-59
2021/08/16 11:03:34;;;;;;;4.00;2.27;;;;;;;;;;5073306;28;20048;-58
2021/08/16 11:06:04;;;;;;;4.27;2.17;;;;;;;;;;5074856;28;20310;-59
2021/08/16 11:08:30;;;;;;;6.85;2.28;;;;;;;;;;5075124;28;20255;-59
2021/08/16 11:10:56;;;;;;;3.70;1.73;;;;;;;;;;5074580;28;20490;-59
2021/08/16 11:13:21;;;;;;;3.30;1.83;;;;;;;;;;5074427;28;20052;-60
2021/08/16 11:15:48;;;;;;;4.00;2.35;;;;;;;;;;5075120;28;20370;-59
2021/08/16 11:18:15;;;;;;;4.03;2.10;;;;;;;;;;5075124;28;20385;-59
2021/08/16 11:20:41;;;;;;;3.75;1.90;;;;;;;;;;5074462;28;20049;-60
2021/08/16 11:23:06;;;;;;;2.83;2.03;;;;;;;;;;5074288;28;20024;-60
2021/08/16 11:25:31;;;;;;;4.63;2.45;;;;;;;;;;5074794;28;20028;-59
2021/08/16 11:28:01;;;;;;;3.40;2.07;;;;;;;;;;5075031;28;20496;-60
2021/08/16 11:30:27;;;;;;;4.28;1.98;;;;;;;;;;5074632;28;20275;-60
2021/08/16 11:32:53;;;;;;;4.95;2.03;;;;;;;;;;5074981;28;20027;-59
2021/08/16 11:35:18;;;;;;;4.55;1.65;;;;;;;;;;5074394;28;20025;-60
2021/08/16 11:37:48;;;;;;;1.42;0.90;;;;;;;;;;5074827;28;20105;-60
2021/08/16 11:40:13;;;;;;;3.63;1.58;;;;;;;;;;5071140;28;20031;-59
2021/08/16 11:42:39;;;;;;;4.30;1.60;;;;;;;;;;5065037;28;20017;-58
2021/08/16 11:45:06;;;;;;;2.17;1.35;;;;;;;;;;5054320;28;20036;-60
2021/08/16 11:47:36;;;;;;;2.97;1.63;;;;;;;;;;5067103;28;20406;-59
2021/08/16 11:50:09;;;;;;;4.53;2.40;;;;;;;;;;5073945;28;20108;-60
2021/08/16 11:52:34;;;;;;;3.88;2.08;;;;;;;;;;5073873;28;20024;-60
2021/08/16 11:55:00;;;;;;;5.85;1.67;;;;;;;;;;5074045;28;20039;-59
2021/08/16 11:57:26;;;;;;;2.55;1.10;;;;;;;;;;5074521;28;20016;-60
2021/08/16 11:59:52;;;;;;;2.47;1.48;;;;;;;;;;5073647;28;20013;-60
2021/08/16 12:02:18;;;;;;;2.70;1.67;;;;;;;;;;5072608;28;20024;-60
2021/08/16 12:04:43;;;;;;;4.00;1.75;;;;;;;;;;5073962;28;20024;-60
2021/08/16 12:07:08;;;;;;;2.67;0.85;;;;;;;;;;5074094;28;20029;-60
2021/08/16 12:09:34;;;;;;;2.88;1.48;;;;;;;;;;5069387;28;20139;-59
2021/08/16 12:12:00;;;;;;;3.60;1.25;;;;;;;;;;5053599;28;20025;-61
2021/08/16 12:14:26;;;;;;;4.75;1.38;;;;;;;;;;5053649;28;20021;-61
2021/08/16 12:16:52;;;;;;;3.63;1.45;;;;;;;;;;5073570;28;20031;-61
2021/08/16 12:19:18;;;;;;;4.28;1.30;;;;;;;;;;5073167;28;20496;-60
2021/08/16 12:21:43;;;;;;;3.95;1.50;;;;;;;;;;5073584;28;20060;-60
2021/08/16 12:24:08;;;;;;;2.80;1.02;;;;;;;;;;5073982;28;20019;-59
2021/08/16 12:26:35;;;;;;;2.70;1.25;;;;;;;;;;5073112;28;20490;-60
2021/08/16 12:29:01;;;;;;;5.13;1.30;;;;;;;;;;5073049;28;20070;-60
2021/08/16 12:31:27;;;;;;;4.00;1.45;;;;;;;;;;5073380;28;20039;-60
2021/08/16 12:33:59;;;;;;;2.78;0.85;;;;;;;;;;5073399;28;20025;-60
2021/08/16 12:36:32;;;;;;;2.42;1.27;;;;;;;;;;5073542;28;20420;-60
2021/08/16 12:38:58;;;;;;;4.82;1.10;;;;;;;;;;5073772;28;20074;-60
2021/08/16 12:41:24;;;;;;;3.80;0.98;;;;;;;;;;5073176;28;20425;-60
2021/08/16 12:43:50;;;;;;;2.50;0.77;;;;;;;;;;5073508;28;20393;-60
2021/08/16 12:46:25;;;;;;;2.60;0.93;;;;;;;;;;5073258;28;20489;-60
2021/08/16 12:48:50;;;;;;;2.38;1.30;;;;;;;;;;5073381;28;20020;-60
2021/08/16 12:51:16;;;;;;;2.42;0.82;;;;;;;;;;5072552;28;20021;-60
2021/08/16 12:53:41;;;;;;;4.33;0.97;;;;;;;;;;5073245;28;20084;-60
2021/08/16 12:56:06;;;;;;;2.30;0.90;;;;;;;;;;5073483;28;20020;-60
2021/08/16 12:58:32;;;;;;;2.38;0.60;;;;;;;;;;5071279;28;20035;-60
2021/08/16 13:00:58;;;;;;;2.97;0.63;;;;;;;;;;5073150;28;20526;-60
2021/08/16 13:03:23;;;;;;;1.52;0.20;;;;;;;;;;5071702;28;20637;-60
2021/08/16 13:05:48;;;;;;;2.17;0.50;;;;;;;;;;5072841;28;20029;-60
2021/08/16 13:08:13;;;;;;;2.92;0.50;;;;;;;;;;5071461;28;20296;-60
2021/08/16 13:10:38;;;;;;;1.63;0.40;;;;;;;;;;5071603;28;20021;-60
2021/08/16 13:13:04;;;;;;;3.67;0.97;;;;;;;;;;5062885;28;20267;-60
2021/08/16 13:15:29;;;;;;;0.85;0.40;;;;;;;;;;5070904;28;20308;-60
2021/08/16 13:17:55;;;;;;;1.80;0.60;;;;;;;;;;5072470;28;20013;-60
2021/08/16 13:20:20;;;;;;;4.20;0.73;;;;;;;;;;5071052;28;20290;-60
2021/08/16 13:22:45;;;;;;;3.55;0.60;;;;;;;;;;5072484;28;20721;-60
2021/08/16 13:25:10;;;;;;;1.63;0.30;;;;;;;;;;5072431;28;20379;-60
2021/08/16 13:27:38;;;;;;;6.30;0.57;;;;;;;;;;5068425;28;20090;-61
2021/08/16 13:30:03;;;;;;;1.75;0.30;;;;;;;;;;5063477;28;20017;-61
2021/08/16 13:32:28;;;;;;;1.55;0.60;;;;;;;;;;5052445;28;20468;-60
2021/08/16 13:34:54;;;;;;;0.80;0.20;;;;;;;;;;5066245;28;20029;-60
2021/08/16 13:37:19;;;;;;;0.77;0.37;;;;;;;;;;5064352;28;20285;-60
2021/08/16 13:39:44;;;;;;;1.60;0.30;;;;;;;;;;5071473;28;20278;-60
2021/08/16 13:42:10;;;;;;;2.40;0.63;;;;;;;;;;5065276;28;20267;-60
2021/08/16 13:44:35;;;;;;;0.63;0.22;;;;;;;;;;5060544;28;20389;-60
2021/08/16 13:47:00;;;;;;;2.63;1.10;;;;;;;;;;5071772;28;20021;-60
2021/08/16 13:49:25;;;;;;;0.60;0.30;;;;;;;;;;5072005;28;20354;-59
2021/08/16 13:51:51;;;;;;;1.20;0.30;;;;;;;;;;5071606;28;20034;-60
2021/08/16 13:54:16;;;;;;;5.88;0.60;;;;;;;;;;5065402;28;20256;-60
2021/08/16 13:56:44;;;;;;;1.25;0.45;;;;;;;;;;5052352;28;20467;-60
2021/08/16 13:59:09;;;;;;;0.80;0.30;;;;;;;;;;5057748;28;20008;-60
2021/08/16 14:01:34;;;;;;;2.05;0.30;;;;;;;;;;5071387;28;20036;-60
2021/08/16 14:03:59;;;;;;;0.68;0.20;;;;;;;;;;5070817;28;20035;-61
2021/08/16 14:06:25;;;;;;;2.65;0.38;;;;;;;;;;5078384;28;20486;-61
2021/08/16 14:08:50;;;;;;;0.77;0.22;;;;;;;;;;5074814;28;20078;-60
2021/08/16 14:11:16;;;;;;;0.60;0.20;;;;;;;;;;5065508;28;20024;-60
2021/08/16 14:13:41;;;;;;;1.65;0.20;;;;;;;;;;5055037;28;20388;-62
2021/08/16 14:16:06;;;;;;;2.23;0.20;;;;;;;;;;5055869;28;20085;-61
2021/08/16 14:18:31;;;;;;;3.30;0.30;;;;;;;;;;5071111;28;20346;-60
2021/08/16 14:20:56;;;;;;;0.63;0.20;;;;;;;;;;5070145;28;20700;-61
2021/08/16 14:23:23;;;;;;;2.60;0.20;;;;;;;;;;5071462;28;20299;-61
2021/08/16 14:25:53;;;;;;;1.95;0.30;;;;;;;;;;5070694;28;20028;-61
2021/08/16 14:28:19;;;;;;;1.30;0.20;;;;;;;;;;5071076;28;20081;-61
2021/08/16 14:30:45;;;;;;;1.77;0.30;;;;;;;;;;5068997;28;20386;-61
2021/08/16 14:33:11;;;;;;;1.30;0.30;;;;;;;;;;5071533;28;20012;-61
2021/08/16 14:35:37;;;;;;;0.50;0.30;;;;;;;;;;5063782;28;20025;-61